createdAt,value
2022-09-05T00:00:19.958Z,76.41
2022-09-05T00:03:04.583Z,76.14
2022-09-05T00:06:13.459Z,76.49
2022-09-05T00:09:04.980Z,76.49
2022-09-05T00:11:46.805Z,76.31
2022-09-05T00:15:15.956Z,76.44
2022-09-05T00:18:09.838Z,76.84
2022-09-05T00:24:21.602Z,77.22
2022-09-05T00:24:34.561Z,77.16
2022-09-05T00:27:16.556Z,77.06
2022-09-05T00:31:51.261Z,77.51
2022-09-05T00:33:41.074Z,77.57
2022-09-05T00:36:15.675Z,77.61
2022-09-05T00:38:58.726Z,77.93
2022-09-05T00:41:29.092Z,77.91
2022-09-05T00:44:03.887Z,77.80
2022-09-05T00:46:40.098Z,78.18
2022-09-05T00:49:22.558Z,78.14
2022-09-05T00:52:23.341Z,78.40
2022-09-05T00:54:52.815Z,78.42
2022-09-05T00:57:42.575Z,78.47
2022-09-05T01:00:33.877Z,78.36
2022-09-05T01:03:09.899Z,78.69
2022-09-05T01:06:06.879Z,78.71
2022-09-05T01:09:10.492Z,78.92
2022-09-05T01:11:50.874Z,79.12
2022-09-05T01:14:31.213Z,79.34
2022-09-05T01:17:19.624Z,79.15
2022-09-05T01:20:19.321Z,79.54
2022-09-05T01:23:00.920Z,79.07
2022-09-05T01:25:55.015Z,79.45
2022-09-05T01:29:16.145Z,79.43
2022-09-05T01:31:29.970Z,79.56
2022-09-05T01:34:16.667Z,79.27
2022-09-05T01:37:24.836Z,80.01
2022-09-05T01:40:20.150Z,80.28
2022-09-05T01:43:01.731Z,80.24
2022-09-05T01:45:55.548Z,80.47
2022-09-05T01:48:49.591Z,80.04
2022-09-05T01:52:05.995Z,80.45
2022-09-05T01:54:47.843Z,80.78
2022-09-05T01:57:48.047Z,80.67
2022-09-05T02:00:22.991Z,80.64
2022-09-05T02:03:13.902Z,81.04
2022-09-05T02:06:06.704Z,81.54
2022-09-05T02:09:01.653Z,81.62
2022-09-05T02:11:45.422Z,81.77
2022-09-05T02:14:34.259Z,81.71
2022-09-05T02:17:49.968Z,82.07
2022-09-05T02:20:26.597Z,82.31
2022-09-05T02:23:26.036Z,82.19
2022-09-05T02:26:05.824Z,82.94
2022-09-05T02:28:43.810Z,82.62
2022-09-05T02:31:24.324Z,83.03
2022-09-05T02:34:11.449Z,83.96
2022-09-05T02:36:48.798Z,83.30
2022-09-05T02:45:03.233Z,83.50
2022-09-05T02:45:21.363Z,83.68
2022-09-05T02:45:25.555Z,83.82
2022-09-05T02:47:55.001Z,84.48
2022-09-05T02:54:10.870Z,84.82
2022-09-05T02:57:40.796Z,84.64
2022-09-05T02:57:46.033Z,84.88
2022-09-05T02:59:42.100Z,85.04
2022-09-05T03:02:27.292Z,85.37
2022-09-05T03:05:09.823Z,85.41
2022-09-05T03:07:56.454Z,86.07
2022-09-05T03:10:53.220Z,86.21
2022-09-05T03:13:56.599Z,86.18
2022-09-05T03:16:49.229Z,86.66
2022-09-05T03:19:56.882Z,87.65
2022-09-05T03:22:27.314Z,86.70
2022-09-05T03:25:39.458Z,87.04
2022-09-05T03:28:34.131Z,87.04
2022-09-05T03:31:20.554Z,87.22
2022-09-05T03:34:13.254Z,87.11
2022-09-05T03:37:32.762Z,88.03
2022-09-05T03:40:33.226Z,88.06
2022-09-05T03:43:31.015Z,88.21
2022-09-05T03:46:20.656Z,88.39
2022-09-05T03:54:32.400Z,89.04
2022-09-05T03:57:14.379Z,88.69
2022-09-05T03:57:27.903Z,89.25
2022-09-05T03:59:01.892Z,89.08
2022-09-05T04:03:30.835Z,90.24
2022-09-05T04:08:24.511Z,90.05
2022-09-05T04:08:28.656Z,89.16
2022-09-05T04:11:08.874Z,90.30
2022-09-05T04:13:50.280Z,89.72
2022-09-05T04:16:39.844Z,89.94
2022-09-05T04:19:20.218Z,90.45
2022-09-05T04:22:03.720Z,90.37
2022-09-05T04:24:50.951Z,90.73
2022-09-05T04:27:29.999Z,90.67
2022-09-05T04:29:58.551Z,90.73
2022-09-05T04:32:55.309Z,91.09
2022-09-05T04:35:49.773Z,91.58
2022-09-05T04:38:35.561Z,91.02
2022-09-05T04:41:13.279Z,91.26
2022-09-05T04:43:58.931Z,91.50
2022-09-05T04:46:48.434Z,91.69
2022-09-05T04:49:24.413Z,91.84
2022-09-05T04:52:00.176Z,92.01
2022-09-05T04:54:51.408Z,92.89
2022-09-05T04:57:35.715Z,92.28
2022-09-05T05:06:04.956Z,92.64
2022-09-05T05:06:17.343Z,92.70
2022-09-05T05:06:31.778Z,93.11
2022-09-05T05:08:58.462Z,93.39
2022-09-05T05:18:01.501Z,93.47
2022-09-05T05:18:10.720Z,93.41
2022-09-05T05:18:36.700Z,94.20
2022-09-05T05:21:03.093Z,93.89
2022-09-05T05:23:59.044Z,94.31
2022-09-05T05:26:37.022Z,94.67
2022-09-05T05:29:10.569Z,94.93
2022-09-05T05:31:49.875Z,94.65
2022-09-05T05:34:25.194Z,94.65
2022-09-05T05:37:18.699Z,94.71
2022-09-05T05:39:57.956Z,94.39
2022-09-05T05:42:26.592Z,94.90
2022-09-05T05:44:59.327Z,95.31
2022-09-05T05:47:37.062Z,95.22
2022-09-05T05:50:42.581Z,95.61
2022-09-05T05:53:33.429Z,95.41
2022-09-05T05:56:33.824Z,95.08
2022-09-05T05:59:56.390Z,95.47
2022-09-05T06:03:25.149Z,95.03
2022-09-05T06:06:27.213Z,95.44
2022-09-05T06:14:47.882Z,94.98
2022-09-05T06:15:00.478Z,94.90
2022-09-05T06:15:38.038Z,94.77
2022-09-05T06:18:45.876Z,94.52
2022-09-05T06:22:15.817Z,94.51
2022-09-05T06:25:07.703Z,94.34
2022-09-05T06:28:18.953Z,93.82
2022-09-05T06:31:29.804Z,93.64
2022-09-05T06:34:20.594Z,93.23
2022-09-05T06:37:07.575Z,93.04
2022-09-05T06:40:17.747Z,92.38
2022-09-05T06:43:32.807Z,92.06
2022-09-05T06:46:54.332Z,91.21
2022-09-05T06:49:30.624Z,90.98
2022-09-05T06:52:41.112Z,89.60
2022-09-05T06:55:09.475Z,89.20
2022-09-05T06:58:17.860Z,88.31
2022-09-05T07:00:48.663Z,87.13
2022-09-05T07:03:42.182Z,86.91
2022-09-05T07:07:01.138Z,85.50
2022-09-05T07:09:39.459Z,83.59
2022-09-05T07:12:23.853Z,82.87
2022-09-05T07:14:56.322Z,82.47
2022-09-05T07:18:13.224Z,81.29
2022-09-05T07:21:17.411Z,81.69
2022-09-05T07:24:06.506Z,81.60
2022-09-05T07:26:51.637Z,80.90
2022-09-05T07:29:30.273Z,80.70
2022-09-05T07:32:02.588Z,80.71
2022-09-05T07:34:33.590Z,80.41
2022-09-05T07:37:15.162Z,80.28
2022-09-05T07:40:24.856Z,80.74
2022-09-05T07:43:09.288Z,80.16
2022-09-05T07:45:55.742Z,80.03
2022-09-05T07:48:34.563Z,79.88
2022-09-05T07:55:46.410Z,79.99
2022-09-05T07:57:08.836Z,79.60
2022-09-05T07:57:25.482Z,79.58
2022-09-05T07:59:48.025Z,79.38
2022-09-05T08:02:19.808Z,79.35
2022-09-05T08:04:48.335Z,78.04
2022-09-05T08:07:46.594Z,77.72
2022-09-05T08:11:24.358Z,77.51
2022-09-05T08:13:48.249Z,75.75
2022-09-05T08:16:25.584Z,75.91
2022-09-05T08:19:27.237Z,74.89
2022-09-05T08:22:00.051Z,75.25
2022-09-05T08:24:44.126Z,75.13
2022-09-05T08:27:24.053Z,74.30
2022-09-05T08:30:25.719Z,74.97
2022-09-05T08:33:10.260Z,71.59
2022-09-05T08:36:14.083Z,70.73
2022-09-05T08:38:45.691Z,71.93
2022-09-05T08:41:14.198Z,70.83
2022-09-05T08:46:37.791Z,70.26
2022-09-05T08:46:53.649Z,70.20
2022-09-05T08:49:46.338Z,69.88
2022-09-05T08:52:22.686Z,69.19
2022-09-05T08:55:26.674Z,68.15
2022-09-05T08:58:00.860Z,69.03
2022-09-05T09:00:38.668Z,68.90
2022-09-05T09:03:28.902Z,69.33
2022-09-05T09:06:13.238Z,68.56
2022-09-05T09:09:03.351Z,69.61
2022-09-05T09:11:44.131Z,68.84
2022-09-05T09:14:57.848Z,69.77
2022-09-05T09:17:37.665Z,70.35
2022-09-05T09:20:14.772Z,70.20
2022-09-05T09:23:29.790Z,70.70
2022-09-05T09:26:13.411Z,72.00
2022-09-05T09:29:11.312Z,71.25
2022-09-05T09:32:02.152Z,70.88
2022-09-05T09:34:38.342Z,70.84
2022-09-05T09:37:49.824Z,71.45
2022-09-05T09:40:52.256Z,71.09
2022-09-05T09:43:44.258Z,70.18
2022-09-05T09:46:31.695Z,70.73
2022-09-05T09:49:22.974Z,70.87
2022-09-05T09:52:23.859Z,70.82
2022-09-05T09:55:28.518Z,72.23
2022-09-05T09:58:22.672Z,70.55
2022-09-05T10:01:36.569Z,70.70
2022-09-05T10:10:35.371Z,70.89
2022-09-05T10:10:52.199Z,70.25
2022-09-05T10:14:02.893Z,70.93
2022-09-05T10:16:42.479Z,72.29
2022-09-05T10:22:47.603Z,71.09
2022-09-05T10:25:47.209Z,71.78
2022-09-05T10:28:37.672Z,71.62
2022-09-05T10:33:58.371Z,72.11
2022-09-05T10:35:13.150Z,71.41
2022-09-05T10:37:12.401Z,71.37
2022-09-05T10:39:51.026Z,71.54
2022-09-05T10:42:59.899Z,72.10
2022-09-05T10:45:53.125Z,72.42
2022-09-05T10:48:38.481Z,72.27
2022-09-05T10:51:27.044Z,72.92
2022-09-05T10:54:03.967Z,73.09
2022-09-05T10:56:47.801Z,73.31
2022-09-05T11:02:23.254Z,72.68
2022-09-05T11:02:34.713Z,73.47
2022-09-05T11:05:29.594Z,73.26
2022-09-05T11:08:17.856Z,72.89
2022-09-05T11:11:01.365Z,73.63
2022-09-05T11:13:43.341Z,71.61
2022-09-05T11:16:52.593Z,71.42
2022-09-05T11:19:39.766Z,71.03
2022-09-05T11:22:23.064Z,70.30
2022-09-05T11:24:58.818Z,70.55
2022-09-05T11:27:36.301Z,69.30
2022-09-05T11:30:28.948Z,69.67
2022-09-05T11:37:27.330Z,69.77
2022-09-05T11:40:04.229Z,69.35
2022-09-05T11:40:05.248Z,70.35
2022-09-05T11:42:43.171Z,68.26
2022-09-05T11:46:02.397Z,68.38
2022-09-05T11:49:04.329Z,68.69
2022-09-05T11:51:54.673Z,67.54
2022-09-05T11:54:41.461Z,67.97
2022-09-05T11:57:34.382Z,68.32
2022-09-05T12:00:32.431Z,68.91
2022-09-05T12:03:41.414Z,68.20
2022-09-05T12:06:24.332Z,67.10
2022-09-05T12:09:04.884Z,67.03
2022-09-05T12:11:47.245Z,66.67
2022-09-05T12:14:42.446Z,66.54
2022-09-05T12:17:35.002Z,66.83
2022-09-05T12:20:17.086Z,67.29
2022-09-05T12:23:51.412Z,66.21
2022-09-05T12:27:39.964Z,65.30
2022-09-05T12:29:37.384Z,65.72
2022-09-05T12:33:32.727Z,65.29
2022-09-05T12:36:10.454Z,66.55
2022-09-05T12:39:36.682Z,65.85
2022-09-05T12:42:10.482Z,66.24
2022-09-05T12:44:44.754Z,66.14
2022-09-05T12:47:21.110Z,66.35
2022-09-05T12:50:14.922Z,66.29
2022-09-05T12:52:52.489Z,65.43
2022-09-05T12:55:31.138Z,64.59
2022-09-05T13:02:55.731Z,64.60
2022-09-05T13:03:11.871Z,64.07
2022-09-05T13:04:20.217Z,63.45
2022-09-05T13:07:01.222Z,63.41
2022-09-05T13:10:47.524Z,62.66
2022-09-05T13:14:56.314Z,62.69
2022-09-05T13:15:36.533Z,62.95
2022-09-05T13:18:13.158Z,62.50
2022-09-05T13:20:51.748Z,62.80
2022-09-05T13:23:33.144Z,63.27
2022-09-05T13:26:10.273Z,62.12
2022-09-05T13:28:52.896Z,62.04
2022-09-05T13:38:02.114Z,62.01
2022-09-05T13:38:04.486Z,61.25
2022-09-05T13:38:14.178Z,61.96
2022-09-05T13:40:40.274Z,61.88
2022-09-05T13:43:29.816Z,61.11
2022-09-05T13:46:19.277Z,61.15
2022-09-05T13:52:21.897Z,58.59
2022-09-05T13:54:55.493Z,59.25
2022-09-05T13:57:34.780Z,59.27
2022-09-05T14:00:27.011Z,59.44
2022-09-05T14:03:38.799Z,58.00
2022-09-05T14:06:36.587Z,58.77
2022-09-05T14:09:48.297Z,59.17
2022-09-05T14:12:29.445Z,59.02
2022-09-05T14:15:26.318Z,58.36
2022-09-05T14:18:00.724Z,58.48
2022-09-05T14:20:53.312Z,58.13
2022-09-05T14:23:27.390Z,58.25
2022-09-05T14:26:00.657Z,58.71
2022-09-05T14:28:46.670Z,58.56
2022-09-05T14:34:05.764Z,58.28
2022-09-05T14:37:36.686Z,58.90
2022-09-05T14:37:41.744Z,58.47
2022-09-05T14:40:38.191Z,58.37
2022-09-05T14:43:31.314Z,58.64
2022-09-05T14:46:28.076Z,58.30
2022-09-05T14:49:18.582Z,58.59
2022-09-05T14:51:50.918Z,58.49
2022-09-05T15:02:11.184Z,58.85
2022-09-05T15:02:53.352Z,58.35
2022-09-05T15:03:04.255Z,58.39
2022-09-05T15:05:41.037Z,58.92
2022-09-05T15:08:24.051Z,59.36
2022-09-05T15:12:16.062Z,58.46
2022-09-05T15:14:04.893Z,58.60
2022-09-05T15:16:38.792Z,58.82
2022-09-05T15:19:10.277Z,58.42
2022-09-05T15:21:42.519Z,59.10
2022-09-05T15:24:24.918Z,59.15
2022-09-05T15:27:01.290Z,58.99
2022-09-05T15:29:35.405Z,59.45
2022-09-05T15:32:25.079Z,59.01
2022-09-05T15:34:56.301Z,59.57
2022-09-05T15:37:43.582Z,59.25
2022-09-05T15:40:24.003Z,59.10
2022-09-05T15:42:57.838Z,59.58
2022-09-05T15:45:37.675Z,59.59
2022-09-05T15:48:12.797Z,59.27
2022-09-05T15:50:51.426Z,59.99
2022-09-05T15:53:30.039Z,59.46
2022-09-05T15:56:16.946Z,59.82
2022-09-05T15:58:56.137Z,59.51
2022-09-05T16:01:31.200Z,59.46
2022-09-05T16:07:59.885Z,59.06
2022-09-05T16:10:36.344Z,59.82
2022-09-05T16:10:42.869Z,59.92
2022-09-05T16:13:35.216Z,60.32
2022-09-05T16:20:34.583Z,60.04
2022-09-05T16:23:16.961Z,60.15
2022-09-05T16:23:26.367Z,60.35
2022-09-05T16:25:11.104Z,59.92
2022-09-05T16:27:45.778Z,60.73
2022-09-05T16:30:29.324Z,60.51
2022-09-05T16:33:02.618Z,60.64
2022-09-05T16:35:37.028Z,60.96
2022-09-05T16:38:48.482Z,60.86
2022-09-05T16:41:43.196Z,60.81
2022-09-05T16:44:35.680Z,61.20
2022-09-05T16:47:12.195Z,61.15
2022-09-05T16:49:57.381Z,61.87
2022-09-05T16:52:53.695Z,61.58
2022-09-05T16:55:48.602Z,61.85
2022-09-05T16:58:33.553Z,61.98
2022-09-05T17:01:15.820Z,62.04
2022-09-05T17:04:05.309Z,61.88
2022-09-05T17:06:45.800Z,62.23
2022-09-05T17:09:24.369Z,62.01
2022-09-05T17:12:01.982Z,62.36
2022-09-05T17:14:39.205Z,62.66
2022-09-05T17:17:20.101Z,63.09
2022-09-05T17:20:15.268Z,63.78
2022-09-05T17:29:20.110Z,64.13
2022-09-05T17:29:27.752Z,65.61
2022-09-05T17:29:31.064Z,64.63
2022-09-05T17:31:56.465Z,66.60
2022-09-05T17:34:47.719Z,66.93
2022-09-05T17:37:29.311Z,67.18
2022-09-05T17:40:12.735Z,67.63
2022-09-05T17:43:02.111Z,68.42
2022-09-05T17:45:57.050Z,68.98
2022-09-05T17:49:07.054Z,70.31
2022-09-05T17:51:35.705Z,70.33
2022-09-05T17:54:06.351Z,70.95
2022-09-05T17:56:49.976Z,71.53
2022-09-05T17:59:19.419Z,72.46
2022-09-05T18:02:03.347Z,72.56
2022-09-05T18:04:45.738Z,73.11
2022-09-05T18:07:23.132Z,73.31
2022-09-05T18:10:03.565Z,73.79
2022-09-05T18:13:31.450Z,74.22
2022-09-05T18:15:40.259Z,74.30
2022-09-05T18:18:11.876Z,74.98
2022-09-05T18:21:21.842Z,74.80
2022-09-05T18:24:02.347Z,75.00
2022-09-05T18:26:40.050Z,75.05
2022-09-05T18:29:14.307Z,74.54
2022-09-05T18:31:43.813Z,74.46
2022-09-05T18:34:16.424Z,74.45
2022-09-05T18:36:50.562Z,74.45
2022-09-05T18:39:29.390Z,74.39
2022-09-05T18:42:33.614Z,74.60
2022-09-05T18:45:14.604Z,74.68
2022-09-05T18:47:57.326Z,74.61
2022-09-05T18:50:33.773Z,74.75
2022-09-05T18:53:10.531Z,74.76
2022-09-05T18:56:20.090Z,75.25
2022-09-05T18:58:53.390Z,75.35
2022-09-05T19:02:06.807Z,76.10
2022-09-05T19:05:02.548Z,76.96
2022-09-05T19:07:48.347Z,77.10
2022-09-05T19:10:34.494Z,77.18
2022-09-05T19:13:19.603Z,77.12
2022-09-05T19:16:21.217Z,78.03
2022-09-05T19:19:06.801Z,77.97
2022-09-05T19:21:39.182Z,78.12
2022-09-05T19:24:11.465Z,78.40
2022-09-05T19:26:40.630Z,78.83
2022-09-05T19:36:49.126Z,79.41
2022-09-05T19:37:13.589Z,80.30
2022-09-05T19:37:15.604Z,79.56
2022-09-05T19:37:48.984Z,80.88
2022-09-05T19:44:23.717Z,81.01
2022-09-05T19:47:41.034Z,80.79
2022-09-05T19:47:47.914Z,80.94
2022-09-05T19:49:08.314Z,81.39
2022-09-05T19:51:38.037Z,81.68
2022-09-05T19:54:07.310Z,82.37
2022-09-05T19:56:46.290Z,82.81
2022-09-05T19:59:20.322Z,83.25
2022-09-05T20:01:50.501Z,83.76
2022-09-05T20:04:21.661Z,82.92
2022-09-05T20:06:50.402Z,82.38
2022-09-05T20:09:22.549Z,82.45
2022-09-05T20:11:57.920Z,82.38
2022-09-05T20:14:30.477Z,82.85
2022-09-05T20:17:17.424Z,82.66
2022-09-05T20:19:45.871Z,82.48
2022-09-05T20:22:47.900Z,82.57
2022-09-05T20:25:36.762Z,83.24
2022-09-05T20:28:37.828Z,82.87
2022-09-05T20:31:20.585Z,82.96
2022-09-05T20:33:53.196Z,82.22
2022-09-05T20:43:11.040Z,82.31
2022-09-05T20:43:16.384Z,81.65
2022-09-05T20:43:17.116Z,81.84
2022-09-05T20:45:48.409Z,81.04
2022-09-05T20:54:04.547Z,80.63
2022-09-05T20:54:21.962Z,80.39
2022-09-05T20:54:33.008Z,80.25
2022-09-05T20:56:56.901Z,79.58
2022-09-05T20:59:34.808Z,78.61
2022-09-05T21:02:10.049Z,78.46
2022-09-05T21:04:38.832Z,78.62
2022-09-05T21:07:14.155Z,77.66
2022-09-05T21:09:52.725Z,77.83
2022-09-05T21:12:44.781Z,76.32
2022-09-05T21:15:52.345Z,76.33
2022-09-05T21:18:22.479Z,76.21
2022-09-05T21:20:58.046Z,76.25
2022-09-05T21:23:29.016Z,75.99
2022-09-05T21:26:22.542Z,76.01
2022-09-05T21:29:13.898Z,75.28
2022-09-05T21:31:54.484Z,75.25
2022-09-05T21:34:28.170Z,75.09
2022-09-05T21:37:06.693Z,75.20
2022-09-05T21:39:42.914Z,75.09
2022-09-05T21:44:40.835Z,75.13
2022-09-05T21:47:42.997Z,75.54
2022-09-05T21:48:04.718Z,75.78
2022-09-05T21:50:39.681Z,76.04
2022-09-05T21:58:13.058Z,76.06
2022-09-05T21:59:29.496Z,76.04
2022-09-05T21:59:33.444Z,76.09
2022-09-05T22:02:00.413Z,76.25
2022-09-05T22:04:29.743Z,76.67
2022-09-05T22:07:02.747Z,76.12
2022-09-05T22:09:31.305Z,76.34
2022-09-05T22:12:00.060Z,76.31
2022-09-05T22:14:34.933Z,76.11
2022-09-05T22:17:03.750Z,76.16
2022-09-05T22:19:37.477Z,75.92
2022-09-05T22:22:16.468Z,75.95
2022-09-05T22:24:52.169Z,75.81
2022-09-05T22:27:22.153Z,76.03
2022-09-05T22:29:51.807Z,75.87
2022-09-05T22:32:34.049Z,76.06
2022-09-05T22:35:27.996Z,76.05
2022-09-05T22:38:10.582Z,76.00
2022-09-05T22:40:41.781Z,75.59
2022-09-05T22:43:13.103Z,75.78
2022-09-05T22:45:41.625Z,76.14
2022-09-05T22:48:12.982Z,75.85
2022-09-05T22:50:42.755Z,76.17
2022-09-05T22:53:11.191Z,76.06
2022-09-05T22:55:42.148Z,76.15
2022-09-05T22:58:13.361Z,76.51
2022-09-05T23:00:44.148Z,76.77
2022-09-05T23:03:12.473Z,76.52
2022-09-05T23:05:40.790Z,76.42
2022-09-05T23:08:09.513Z,76.58
2022-09-05T23:10:37.888Z,76.75
2022-09-05T23:13:09.442Z,77.23
2022-09-05T23:15:38.831Z,76.97
2022-09-05T23:18:08.657Z,77.10
2022-09-05T23:20:36.962Z,77.24
2022-09-05T23:23:06.698Z,77.20
2022-09-05T23:25:35.888Z,77.33
2022-09-05T23:28:08.662Z,77.75
2022-09-05T23:30:38.997Z,77.58
2022-09-05T23:33:11.077Z,77.43
2022-09-05T23:35:40.088Z,77.40
2022-09-05T23:38:10.591Z,77.46
2022-09-05T23:40:39.053Z,77.26
2022-09-05T23:43:07.542Z,77.35
2022-09-05T23:45:35.874Z,77.28
2022-09-05T23:48:04.336Z,77.26
2022-09-05T23:50:32.673Z,77.18
2022-09-05T23:53:04.315Z,77.04
2022-09-05T23:55:33.991Z,77.30
2022-09-05T23:58:02.691Z,77.16
